Time;durP1;ratioP1;P1;durP2;ratioP2;P2;SDS_P1;SDS_P2;PMS_P1;PMS_P2;Temp;Humidity;BMP_temperature;BMP_pressure;BME280_temperature;BME280_humidity;BME280_pressure;Samples;Min_cycle;Max_cycle;Signal;HPM_P1;HPM_P2
2023/10/21 00:00:20;;;;;;;;;;;;;;;;;;112542;211;41669;-45
2023/10/21 00:03:12;;;;;;;;;;;;;;;;;;112555;211;41353;-45
2023/10/21 00:05:46;;;;;;;;;;;;;;;;;;112493;211;40945;-45
2023/10/21 00:08:20;;;;;;;;;;;;;;;;;;112547;211;48573;-45
2023/10/21 00:11:03;;;;;;;;;;;;;;;;;;112533;211;41400;-46
2023/10/21 00:13:41;;;;;;;;;;;;;;;;;;112554;211;38709;-45
2023/10/21 00:16:14;;;;;;;;;;;;;;;;;;112530;211;39540;-46
2023/10/21 00:18:47;;;;;;;;;;;;;;;;;;112558;211;48279;-47
2023/10/21 00:21:21;;;;;;;;;;;;;;;;;;112533;211;41705;-45
2023/10/21 00:23:54;;;;;;;;;;;;;;;;;;112509;211;38626;-46
2023/10/21 00:26:30;;;;;;;;;;;;;;;;;;112511;211;39284;-46
2023/10/21 00:29:06;;;;;;;;;;;;;;;;;;112538;211;49061;-45
2023/10/21 00:31:42;;;;;;;;;;;;;;;;;;112557;211;41591;-46
2023/10/21 00:34:15;;;;;;;;;;;;;;;;;;112620;211;39997;-45
2023/10/21 00:36:50;;;;;;;;;;;;;;;;;;112459;211;192681;-46
2023/10/21 00:39:24;;;;;;;;;;;;;;;;;;112610;211;49355;-45
2023/10/21 00:41:57;;;;;;;;;;;;;;;;;;112589;211;41524;-46
2023/10/21 00:44:33;;;;;;;;;;;;;;;;;;112624;211;38478;-46
2023/10/21 00:47:10;;;;;;;;;;;;;;;;;;112661;211;39743;-46
2023/10/21 00:49:45;;;;;;;;;;;;;;;;;;112646;211;50858;-47
2023/10/21 00:52:25;;;;;;;;;;;;;;;;;;112645;211;41397;-46
2023/10/21 00:55:05;;;;;;;;;;;;;;;;;;112622;211;38441;-45
2023/10/21 00:57:41;;;;;;;;;;;;;;;;;;112465;212;39380;-46
2023/10/21 01:00:21;;;;;;;;;;;;;;;;;;112527;212;42773;-45
2023/10/21 01:02:57;;;;;;;;;;;;;;;;;;112385;212;41802;-46
2023/10/21 01:05:34;;;;;;;;;;;;;;;;;;112461;212;38671;-46
2023/10/21 01:08:08;;;;;;;;;;;;;;;;;;112429;212;39425;-46
2023/10/21 01:10:42;;;;;;;;;;;;;;;;;;112449;212;42863;-46
2023/10/21 01:13:17;;;;;;;;;;;;;;;;;;112457;212;41391;-45
2023/10/21 01:15:51;;;;;;;;;;;;;;;;;;112489;212;38666;-46
2023/10/21 01:18:33;;;;;;;;;;;;;;;;;;112434;212;41082;-45
2023/10/21 01:21:09;;;;;;;;;;;;;;;;;;112477;212;42881;-46
2023/10/21 01:23:42;;;;;;;;;;;;;;;;;;112500;212;41923;-46
2023/10/21 01:26:17;;;;;;;;;;;;;;;;;;112452;212;38934;-48
2023/10/21 01:28:51;;;;;;;;;;;;;;;;;;112406;212;39631;-45
2023/10/21 01:31:27;;;;;;;;;;;;;;;;;;112443;212;42779;-48
2023/10/21 01:34:01;;;;;;;;;;;;;;;;;;112456;212;41829;-46
2023/10/21 01:36:35;;;;;;;;;;;;;;;;;;112468;212;38797;-46
2023/10/21 01:39:10;;;;;;;;;;;;;;;;;;112386;212;39437;-48
2023/10/21 01:41:45;;;;;;;;;;;;;;;;;;112419;212;42553;-48
2023/10/21 01:44:22;;;;;;;;;;;;;;;;;;112425;212;41429;-46
2023/10/21 01:46:55;;;;;;;;;;;;;;;;;;112446;212;38684;-46
2023/10/21 01:49:30;;;;;;;;;;;;;;;;;;112465;212;39300;-45
2023/10/21 01:52:04;;;;;;;;;;;;;;;;;;112463;212;42560;-45
2023/10/21 01:54:38;;;;;;;;;;;;;;;;;;112424;212;41742;-45
2023/10/21 01:57:12;;;;;;;;;;;;;;;;;;112423;212;38900;-45
2023/10/21 01:59:47;;;;;;;;;;;;;;;;;;112408;212;39589;-45
2023/10/21 02:02:21;;;;;;;;;;;;;;;;;;112421;212;42946;-45
2023/10/21 02:04:56;;;;;;;;;;;;;;;;;;112439;212;43042;-46
2023/10/21 02:07:29;;;;;;;;;;;;;;;;;;112428;212;38719;-45
2023/10/21 02:10:06;;;;;;;;;;;;;;;;;;112384;212;39540;-46
2023/10/21 02:12:39;;;;;;;;;;;;;;;;;;112452;212;44078;-46
2023/10/21 02:15:14;;;;;;;;;;;;;;;;;;112397;212;41955;-45
2023/10/21 02:17:49;;;;;;;;;;;;;;;;;;112409;212;38689;-45
2023/10/21 02:20:26;;;;;;;;;;;;;;;;;;112231;212;175652;-45
2023/10/21 02:23:01;;;;;;;;;;;;;;;;;;112433;212;43961;-45
2023/10/21 02:25:34;;;;;;;;;;;;;;;;;;112397;212;43056;-45
2023/10/21 02:28:09;;;;;;;;;;;;;;;;;;112421;212;39029;-45
2023/10/21 02:30:49;;;;;;;;;;;;;;;;;;112375;212;41223;-45
2023/10/21 02:33:25;;;;;;;;;;;;;;;;;;112462;212;42850;-45
2023/10/21 02:35:57;;;;;;;;;;;;;;;;;;112479;212;41643;-46
2023/10/21 02:38:29;;;;;;;;;;;;;;;;;;112393;212;38738;-45
2023/10/21 02:41:05;;;;;;;;;;;;;;;;;;112392;212;40877;-45
2023/10/21 02:43:42;;;;;;;;;;;;;;;;;;112435;212;42896;-45
2023/10/21 02:46:18;;;;;;;;;;;;;;;;;;112432;212;41857;-45
2023/10/21 02:48:53;;;;;;;;;;;;;;;;;;112447;212;39051;-45
2023/10/21 02:51:27;;;;;;;;;;;;;;;;;;112413;212;39263;-45
2023/10/21 02:54:00;;;;;;;;;;;;;;;;;;112495;212;42950;-46
2023/10/21 02:56:35;;;;;;;;;;;;;;;;;;112475;212;41624;-45
2023/10/21 02:59:07;;;;;;;;;;;;;;;;;;112457;212;38810;-46
2023/10/21 03:01:40;;;;;;;;;;;;;;;;;;112480;212;39922;-45
2023/10/21 03:04:13;;;;;;;;;;;;;;;;;;112483;212;42853;-45
2023/10/21 03:06:47;;;;;;;;;;;;;;;;;;112498;212;41856;-47
2023/10/21 03:09:22;;;;;;;;;;;;;;;;;;112498;211;38836;-46
2023/10/21 03:11:55;;;;;;;;;;;;;;;;;;112323;211;175708;-45
2023/10/21 03:14:31;;;;;;;;;;;;;;;;;;112519;211;42983;-45
2023/10/21 03:17:05;;;;;;;;;;;;;;;;;;112471;211;42011;-47
2023/10/21 03:19:40;;;;;;;;;;;;;;;;;;112507;211;38738;-45
2023/10/21 03:22:12;;;;;;;;;;;;;;;;;;112401;212;39959;-47
2023/10/21 03:24:44;;;;;;;;;;;;;;;;;;112418;212;44198;-45
2023/10/21 03:27:20;;;;;;;;;;;;;;;;;;112341;212;176424;-45
2023/10/21 03:29:54;;;;;;;;;;;;;;;;;;112335;212;175687;-45
2023/10/21 03:32:27;;;;;;;;;;;;;;;;;;112396;212;41710;-46
2023/10/21 03:34:59;;;;;;;;;;;;;;;;;;112473;212;43963;-46
2023/10/21 03:37:34;;;;;;;;;;;;;;;;;;112454;212;43010;-47
2023/10/21 03:40:10;;;;;;;;;;;;;;;;;;112458;212;38495;-45
2023/10/21 03:42:42;;;;;;;;;;;;;;;;;;112385;212;39751;-45
2023/10/21 03:45:16;;;;;;;;;;;;;;;;;;112411;212;42837;-45
2023/10/21 03:47:49;;;;;;;;;;;;;;;;;;112066;213;423883;-45
2023/10/21 03:50:21;;;;;;;;;;;;;;;;;;112247;212;175693;-45
2023/10/21 03:52:54;;;;;;;;;;;;;;;;;;112404;212;39605;-45
2023/10/21 03:55:28;;;;;;;;;;;;;;;;;;112461;212;43027;-45
2023/10/21 03:58:01;;;;;;;;;;;;;;;;;;112428;212;41659;-45
2023/10/21 04:00:35;;;;;;;;;;;;;;;;;;112453;212;37708;-45
2023/10/21 04:03:12;;;;;;;;;;;;;;;;;;112403;212;39751;-45
2023/10/21 04:05:48;;;;;;;;;;;;;;;;;;112465;212;42765;-45
2023/10/21 04:08:21;;;;;;;;;;;;;;;;;;112434;212;41809;-46
2023/10/21 04:10:54;;;;;;;;;;;;;;;;;;112497;212;38709;-45
2023/10/21 04:13:28;;;;;;;;;;;;;;;;;;112446;212;39679;-46
2023/10/21 04:16:03;;;;;;;;;;;;;;;;;;112475;212;42519;-47
2023/10/21 04:18:40;;;;;;;;;;;;;;;;;;112311;212;175702;-45
2023/10/21 04:21:18;;;;;;;;;;;;;;;;;;112441;211;175699;-45
2023/10/21 04:23:57;;;;;;;;;;;;;;;;;;112516;211;45196;-46
2023/10/21 04:26:32;;;;;;;;;;;;;;;;;;112600;211;42502;-45
2023/10/21 04:29:06;;;;;;;;;;;;;;;;;;112468;211;175719;-45
2023/10/21 04:31:41;;;;;;;;;;;;;;;;;;112597;211;38726;-47
2023/10/21 04:34:15;;;;;;;;;;;;;;;;;;112566;211;39592;-46
2023/10/21 04:36:49;;;;;;;;;;;;;;;;;;112468;211;196384;-46
2023/10/21 04:39:22;;;;;;;;;;;;;;;;;;112571;211;41780;-45
2023/10/21 04:41:57;;;;;;;;;;;;;;;;;;112593;211;39968;-46
2023/10/21 04:44:30;;;;;;;;;;;;;;;;;;112580;211;42277;-45
2023/10/21 04:47:02;;;;;;;;;;;;;;;;;;112572;211;43276;-45
2023/10/21 04:49:36;;;;;;;;;;;;;;;;;;112555;211;42936;-45
2023/10/21 04:52:11;;;;;;;;;;;;;;;;;;112575;211;38908;-46
2023/10/21 04:54:43;;;;;;;;;;;;;;;;;;112595;211;47207;-46
2023/10/21 04:57:18;;;;;;;;;;;;;;;;;;112609;211;44352;-45
2023/10/21 04:59:53;;;;;;;;;;;;;;;;;;112516;212;41684;-45
2023/10/21 05:02:26;;;;;;;;;;;;;;;;;;112438;212;38742;-46
2023/10/21 05:05:03;;;;;;;;;;;;;;;;;;112478;212;45950;-46
2023/10/21 05:07:37;;;;;;;;;;;;;;;;;;112481;212;42978;-45
2023/10/21 05:10:12;;;;;;;;;;;;;;;;;;112483;212;41449;-45
2023/10/21 05:12:44;;;;;;;;;;;;;;;;;;112445;212;40072;-46
2023/10/21 05:15:18;;;;;;;;;;;;;;;;;;112485;212;46755;-45
2023/10/21 05:17:52;;;;;;;;;;;;;;;;;;112505;212;43091;-45
2023/10/21 05:20:25;;;;;;;;;;;;;;;;;;112426;212;41638;-46
2023/10/21 05:22:57;;;;;;;;;;;;;;;;;;112423;212;38830;-48
2023/10/21 05:25:31;;;;;;;;;;;;;;;;;;112502;212;46872;-46
2023/10/21 05:28:06;;;;;;;;;;;;;;;;;;111850;212;897015;-49
2023/10/21 05:30:40;;;;;;;;;;;;;;;;;;112550;212;41707;-45
2023/10/21 05:33:15;;;;;;;;;;;;;;;;;;112565;212;38872;-46
2023/10/21 05:35:47;;;;;;;;;;;;;;;;;;112519;212;45691;-45
2023/10/21 05:38:22;;;;;;;;;;;;;;;;;;112474;212;43033;-41
2023/10/21 05:41:04;;;;;;;;;;;;;;;;;;112549;212;41698;-41
2023/10/21 05:43:42;;;;;;;;;;;;;;;;;;112485;212;38850;-42
2023/10/21 05:46:22;;;;;;;;;;;;;;;;;;112502;212;39615;-42
2023/10/21 05:48:58;;;;;;;;;;;;;;;;;;112548;212;42807;-42
2023/10/21 05:51:33;;;;;;;;;;;;;;;;;;112427;212;41662;-42
2023/10/21 05:54:11;;;;;;;;;;;;;;;;;;112459;212;38833;-42
2023/10/21 05:56:44;;;;;;;;;;;;;;;;;;112412;212;39263;-43
2023/10/21 05:59:22;;;;;;;;;;;;;;;;;;112481;212;43145;-41
2023/10/21 06:02:01;;;;;;;;;;;;;;;;;;112467;212;41880;-42
2023/10/21 06:04:37;;;;;;;;;;;;;;;;;;112443;212;38924;-43
2023/10/21 06:07:12;;;;;;;;;;;;;;;;;;112284;212;175650;-44
2023/10/21 06:09:50;;;;;;;;;;;;;;;;;;111827;212;895794;-42
2023/10/21 06:12:28;;;;;;;;;;;;;;;;;;112435;212;41411;-42
2023/10/21 06:15:12;;;;;;;;;;;;;;;;;;112446;212;39172;-43
2023/10/21 06:17:45;;;;;;;;;;;;;;;;;;112439;212;41113;-42
2023/10/21 06:20:24;;;;;;;;;;;;;;;;;;112501;212;42834;-42
2023/10/21 06:22:58;;;;;;;;;;;;;;;;;;112482;212;41826;-41
2023/10/21 06:25:33;;;;;;;;;;;;;;;;;;112417;212;38451;-41
2023/10/21 06:28:08;;;;;;;;;;;;;;;;;;112470;212;39757;-41
2023/10/21 06:30:45;;;;;;;;;;;;;;;;;;112479;212;42867;-41
2023/10/21 06:33:19;;;;;;;;;;;;;;;;;;112511;212;41745;-40
2023/10/21 06:35:54;;;;;;;;;;;;;;;;;;112414;212;38425;-41
2023/10/21 06:38:32;;;;;;;;;;;;;;;;;;112490;212;39703;-40
2023/10/21 06:41:06;;;;;;;;;;;;;;;;;;112483;212;42523;-40
2023/10/21 06:43:45;;;;;;;;;;;;;;;;;;112476;212;41784;-41
2023/10/21 06:46:23;;;;;;;;;;;;;;;;;;112422;212;38702;-43
2023/10/21 06:48:59;;;;;;;;;;;;;;;;;;112495;212;39386;-44
2023/10/21 06:51:35;;;;;;;;;;;;;;;;;;112347;212;196262;-41
2023/10/21 06:54:10;;;;;;;;;;;;;;;;;;112482;212;40661;-40
2023/10/21 06:56:48;;;;;;;;;;;;;;;;;;112427;212;38781;-42
2023/10/21 06:59:22;;;;;;;;;;;;;;;;;;112488;212;39385;-41
2023/10/21 07:01:56;;;;;;;;;;;;;;;;;;112456;212;42966;-42
2023/10/21 07:04:34;;;;;;;;;;;;;;;;;;112470;211;43705;-42
2023/10/21 07:07:10;;;;;;;;;;;;;;;;;;112448;211;39843;-41
2023/10/21 07:09:46;;;;;;;;;;;;;;;;;;112465;212;39748;-42
2023/10/21 07:12:21;;;;;;;;;;;;;;;;;;112489;211;42829;-40
2023/10/21 07:14:55;;;;;;;;;;;;;;;;;;112483;212;41419;-40
2023/10/21 07:17:28;;;;;;;;;;;;;;;;;;112417;212;38691;-40
2023/10/21 07:20:05;;;;;;;;;;;;;;;;;;112452;212;39758;-40
2023/10/21 07:22:37;;;;;;;;;;;;;;;;;;112474;212;42941;-41
2023/10/21 07:25:12;;;;;;;;;;;;;;;;;;112448;212;41685;-41
2023/10/21 07:27:46;;;;;;;;;;;;;;;;;;112460;212;38788;-42
2023/10/21 07:30:23;;;;;;;;;;;;;;;;;;112472;211;40089;-41
2023/10/21 07:33:00;;;;;;;;;;;;;;;;;;112501;211;44231;-41
2023/10/21 07:35:42;;;;;;;;;;;;;;;;;;112506;211;41999;-42
2023/10/21 07:38:20;;;;;;;;;;;;;;;;;;112480;211;44931;-42
2023/10/21 07:40:54;;;;;;;;;;;;;;;;;;112528;211;39757;-42
2023/10/21 07:43:31;;;;;;;;;;;;;;;;;;112527;211;42827;-42
2023/10/21 07:46:06;;;;;;;;;;;;;;;;;;112289;211;41787;-42
2023/10/21 07:48:41;;;;;;;;;;;;;;;;;;112557;211;40164;-41
2023/10/21 07:51:14;;;;;;;;;;;;;;;;;;112458;211;39417;-46
2023/10/21 07:53:48;;;;;;;;;;;;;;;;;;112498;211;42743;-41
2023/10/21 07:56:24;;;;;;;;;;;;;;;;;;112459;211;41662;-40
2023/10/21 07:58:58;;;;;;;;;;;;;;;;;;112346;211;38532;-41
2023/10/21 08:01:33;;;;;;;;;;;;;;;;;;112515;211;39743;-40
2023/10/21 08:04:07;;;;;;;;;;;;;;;;;;112568;211;44253;-41
2023/10/21 08:06:41;;;;;;;;;;;;;;;;;;112545;211;41841;-41
2023/10/21 08:09:15;;;;;;;;;;;;;;;;;;112611;211;41254;-42
2023/10/21 08:11:48;;;;;;;;;;;;;;;;;;112601;211;40871;-43
2023/10/21 08:14:21;;;;;;;;;;;;;;;;;;112564;211;42963;-41
2023/10/21 08:16:54;;;;;;;;;;;;;;;;;;112600;211;41924;-41
2023/10/21 08:19:30;;;;;;;;;;;;;;;;;;112483;211;38486;-42
2023/10/21 08:22:11;;;;;;;;;;;;;;;;;;112569;211;39705;-42
2023/10/21 08:24:47;;;;;;;;;;;;;;;;;;112534;211;42825;-41
2023/10/21 08:27:24;;;;;;;;;;;;;;;;;;112458;211;43050;-43
2023/10/21 08:29:59;;;;;;;;;;;;;;;;;;112486;211;40251;-43
2023/10/21 08:32:35;;;;;;;;;;;;;;;;;;112525;211;40803;-41
2023/10/21 08:35:11;;;;;;;;;;;;;;;;;;112550;211;44099;-42
2023/10/21 08:37:45;;;;;;;;;;;;;;;;;;112552;211;41656;-42
2023/10/21 08:40:20;;;;;;;;;;;;;;;;;;112539;211;39909;-41
2023/10/21 08:42:52;;;;;;;;;;;;;;;;;;112600;211;40686;-41
2023/10/21 08:45:37;;;;;;;;;;;;;;;;;;112485;211;175142;-41
2023/10/21 08:48:13;;;;;;;;;;;;;;;;;;112554;211;41393;-41
2023/10/21 08:50:48;;;;;;;;;;;;;;;;;;112608;211;39989;-41
2023/10/21 08:53:22;;;;;;;;;;;;;;;;;;112601;211;39681;-39
2023/10/21 08:55:57;;;;;;;;;;;;;;;;;;112605;211;43248;-39
2023/10/21 08:58:34;;;;;;;;;;;;;;;;;;112535;211;42803;-39
2023/10/21 09:01:07;;;;;;;;;;;;;;;;;;112532;212;38727;-40
2023/10/21 09:03:42;;;;;;;;;;;;;;;;;;112506;212;39629;-40
2023/10/21 09:06:14;;;;;;;;;;;;;;;;;;112484;212;42972;-40
2023/10/21 09:08:49;;;;;;;;;;;;;;;;;;112470;212;41870;-39
2023/10/21 09:11:27;;;;;;;;;;;;;;;;;;112514;212;40296;-40
2023/10/21 09:14:06;;;;;;;;;;;;;;;;;;112434;212;39938;-40
2023/10/21 09:16:42;;;;;;;;;;;;;;;;;;112449;212;43014;-41
2023/10/21 09:19:14;;;;;;;;;;;;;;;;;;112427;212;42018;-40
2023/10/21 09:21:47;;;;;;;;;;;;;;;;;;112510;212;38713;-40
2023/10/21 09:24:24;;;;;;;;;;;;;;;;;;112442;212;39630;-40
2023/10/21 09:26:56;;;;;;;;;;;;;;;;;;112514;212;43001;-41
2023/10/21 09:29:28;;;;;;;;;;;;;;;;;;112409;212;41803;-41
2023/10/21 09:32:05;;;;;;;;;;;;;;;;;;112504;212;38778;-40
2023/10/21 09:34:43;;;;;;;;;;;;;;;;;;112480;212;40812;-40
2023/10/21 09:37:29;;;;;;;;;;;;;;;;;;112361;212;175641;-40
2023/10/21 09:40:06;;;;;;;;;;;;;;;;;;112406;212;41634;-40
2023/10/21 09:42:41;;;;;;;;;;;;;;;;;;112497;212;38879;-40
2023/10/21 09:45:18;;;;;;;;;;;;;;;;;;112478;212;40834;-40
2023/10/21 09:47:55;;;;;;;;;;;;;;;;;;112494;212;42970;-41
2023/10/21 09:50:28;;;;;;;;;;;;;;;;;;112429;212;42016;-40
2023/10/21 09:53:07;;;;;;;;;;;;;;;;;;112447;212;38674;-40
2023/10/21 09:55:40;;;;;;;;;;;;;;;;;;112504;212;39545;-41
2023/10/21 09:58:17;;;;;;;;;;;;;;;;;;112489;212;42908;-40
2023/10/21 10:00:51;;;;;;;;;;;;;;;;;;112466;212;41701;-40
2023/10/21 10:03:27;;;;;;;;;;;;;;;;;;112475;212;38427;-40
2023/10/21 10:05:59;;;;;;;;;;;;;;;;;;112492;212;39729;-40
2023/10/21 10:08:35;;;;;;;;;;;;;;;;;;112480;212;43081;-40
2023/10/21 10:11:14;;;;;;;;;;;;;;;;;;112471;212;47404;-41
2023/10/21 10:13:48;;;;;;;;;;;;;;;;;;112517;212;38842;-40
2023/10/21 10:16:27;;;;;;;;;;;;;;;;;;112457;212;39307;-39
2023/10/21 10:18:59;;;;;;;;;;;;;;;;;;112418;212;43117;-40
2023/10/21 10:21:35;;;;;;;;;;;;;;;;;;112447;211;41978;-40
2023/10/21 10:24:11;;;;;;;;;;;;;;;;;;112472;212;38833;-39
2023/10/21 10:26:45;;;;;;;;;;;;;;;;;;112459;212;39823;-40
2023/10/21 10:29:25;;;;;;;;;;;;;;;;;;112437;212;42797;-40
2023/10/21 10:34:57;;;;;;;;;;;;;;;;;;108588;243;616523;-41
2023/10/21 10:37:37;;;;;;;;;;;;;;;;;;111242;222;43019;-40
2023/10/21 10:40:25;;;;;;;;;;;;;;;;;;111254;222;41752;-41
2023/10/21 10:43:01;;;;;;;;;;;;;;;;;;112108;215;38405;-41
2023/10/21 10:45:35;;;;;;;;;;;;;;;;;;112042;215;39624;-40
2023/10/21 10:48:12;;;;;;;;;;;;;;;;;;111561;214;671859;-41
2023/10/21 10:50:47;;;;;;;;;;;;;;;;;;112059;214;43140;-40
2023/10/21 10:53:21;;;;;;;;;;;;;;;;;;112100;214;40257;-41
2023/10/21 10:55:56;;;;;;;;;;;;;;;;;;112371;212;39801;-40
2023/10/21 10:58:33;;;;;;;;;;;;;;;;;;112447;212;44184;-39
2023/10/21 11:01:09;;;;;;;;;;;;;;;;;;112320;212;175664;-40
2023/10/21 11:03:44;;;;;;;;;;;;;;;;;;112461;212;38886;-41
2023/10/21 11:06:16;;;;;;;;;;;;;;;;;;112402;213;39955;-39
2023/10/21 11:08:53;;;;;;;;;;;;;;;;;;112467;213;42743;-39
2023/10/21 11:11:27;;;;;;;;;;;;;;;;;;112442;212;41837;-40
2023/10/21 11:14:02;;;;;;;;;;;;;;;;;;112424;212;38676;-39
2023/10/21 11:16:34;;;;;;;;;;;;;;;;;;112371;212;39766;-40
2023/10/21 11:19:09;;;;;;;;;;;;;;;;;;112433;212;42910;-40
2023/10/21 11:21:48;;;;;;;;;;;;;;;;;;112409;212;41607;-40
2023/10/21 11:24:26;;;;;;;;;;;;;;;;;;112430;212;39350;-40
2023/10/21 11:27:00;;;;;;;;;;;;;;;;;;112404;212;46266;-40
2023/10/21 11:29:38;;;;;;;;;;;;;;;;;;112423;212;42068;-39
2023/10/21 11:32:15;;;;;;;;;;;;;;;;;;112455;212;41593;-39
2023/10/21 11:34:48;;;;;;;;;;;;;;;;;;112454;212;38851;-40
2023/10/21 11:37:20;;;;;;;;;;;;;;;;;;112432;212;39934;-40
2023/10/21 11:39:55;;;;;;;;;;;;;;;;;;112402;212;44183;-40
2023/10/21 11:42:27;;;;;;;;;;;;;;;;;;112446;212;44043;-40
2023/10/21 11:45:03;;;;;;;;;;;;;;;;;;112334;212;38885;-41
2023/10/21 11:47:39;;;;;;;;;;;;;;;;;;112301;213;46968;-41
2023/10/21 11:50:14;;;;;;;;;;;;;;;;;;112289;213;42872;-40
2023/10/21 11:52:46;;;;;;;;;;;;;;;;;;112320;213;41407;-40
2023/10/21 11:55:35;;;;;;;;;;;;;;;;;;112299;213;38566;-39
2023/10/21 12:21:18;;;;;;;;;;;;;;;;;;112314;213;39726;-41
2023/10/21 12:24:28;;;;;;;;;;;;;;;;;;112276;213;42932;-41
2023/10/21 12:30:42;;;;;;;;;;;;;;;;;;111796;213;38885;-41
2023/10/21 12:33:37;;;;;;;;;;;;;;;;;;112295;213;39290;-41
2023/10/21 12:41:53;;;;;;;;;;;;;;;;;;112286;213;38417;-41
2023/10/21 12:44:27;;;;;;;;;;;;;;;;;;112349;213;39580;-43
2023/10/21 12:47:05;;;;;;;;;;;;;;;;;;112275;213;42755;-40
2023/10/21 12:49:41;;;;;;;;;;;;;;;;;;112294;213;48590;-41
2023/10/21 12:52:16;;;;;;;;;;;;;;;;;;112233;213;38852;-41
2023/10/21 12:54:48;;;;;;;;;;;;;;;;;;112316;213;39642;-41
2023/10/21 12:57:26;;;;;;;;;;;;;;;;;;112266;213;42926;-42
2023/10/21 13:00:03;;;;;;;;;;;;;;;;;;112295;213;41664;-41
2023/10/21 13:02:39;;;;;;;;;;;;;;;;;;112346;213;38534;-42
2023/10/21 13:05:17;;;;;;;;;;;;;;;;;;112296;213;39696;-41
2023/10/21 13:07:51;;;;;;;;;;;;;;;;;;112288;213;44007;-42
2023/10/21 13:10:24;;;;;;;;;;;;;;;;;;112316;213;41761;-41
2023/10/21 13:13:04;;;;;;;;;;;;;;;;;;112300;213;38936;-41
2023/10/21 13:15:38;;;;;;;;;;;;;;;;;;112329;213;39520;-40
2023/10/21 13:18:13;;;;;;;;;;;;;;;;;;112114;213;175618;-41
2023/10/21 13:20:47;;;;;;;;;;;;;;;;;;112224;213;41721;-41
2023/10/21 13:23:20;;;;;;;;;;;;;;;;;;112147;213;38881;-40
2023/10/21 13:25:54;;;;;;;;;;;;;;;;;;112151;213;39628;-41
2023/10/21 13:28:27;;;;;;;;;;;;;;;;;;111944;213;175606;-41
2023/10/21 13:31:06;;;;;;;;;;;;;;;;;;112150;213;41688;-41
2023/10/21 13:33:39;;;;;;;;;;;;;;;;;;112130;213;40002;-40
2023/10/21 13:36:13;;;;;;;;;;;;;;;;;;112131;213;40407;-39
2023/10/21 13:38:47;;;;;;;;;;;;;;;;;;112086;213;43953;-39
2023/10/21 13:41:22;;;;;;;;;;;;;;;;;;112148;213;41838;-40
2023/10/21 13:43:58;;;;;;;;;;;;;;;;;;112110;213;38715;-39
2023/10/21 13:46:31;;;;;;;;;;;;;;;;;;112146;213;39717;-39
2023/10/21 13:49:13;;;;;;;;;;;;;;;;;;111970;213;175241;-39
2023/10/21 13:51:51;;;;;;;;;;;;;;;;;;112139;213;42933;-39
2023/10/21 13:54:26;;;;;;;;;;;;;;;;;;112156;213;40131;-40
2023/10/21 13:57:03;;;;;;;;;;;;;;;;;;112096;213;39546;-40
2023/10/21 13:59:37;;;;;;;;;;;;;;;;;;112074;213;42724;-40
2023/10/21 14:02:11;;;;;;;;;;;;;;;;;;112142;213;41634;-39
2023/10/21 14:04:46;;;;;;;;;;;;;;;;;;112140;213;39010;-40
2023/10/21 14:07:19;;;;;;;;;;;;;;;;;;112138;213;39361;-39
2023/10/21 14:09:52;;;;;;;;;;;;;;;;;;112092;213;42985;-39
2023/10/21 14:12:26;;;;;;;;;;;;;;;;;;112676;211;41647;-39
2023/10/21 14:15:05;;;;;;;;;;;;;;;;;;112612;211;38891;-41
2023/10/21 14:17:39;;;;;;;;;;;;;;;;;;112636;211;39796;-40
2023/10/21 14:20:13;;;;;;;;;;;;;;;;;;112648;211;43063;-41
2023/10/21 14:22:45;;;;;;;;;;;;;;;;;;112599;211;40859;-40
2023/10/21 14:25:24;;;;;;;;;;;;;;;;;;112546;211;38707;-40
2023/10/21 14:27:57;;;;;;;;;;;;;;;;;;112623;211;39731;-40
2023/10/21 14:30:33;;;;;;;;;;;;;;;;;;112591;211;42674;-40
2023/10/21 14:33:07;;;;;;;;;;;;;;;;;;112623;211;42007;-41
2023/10/21 14:35:40;;;;;;;;;;;;;;;;;;112572;211;38680;-41
2023/10/21 14:38:13;;;;;;;;;;;;;;;;;;112639;211;39320;-39
2023/10/21 14:40:50;;;;;;;;;;;;;;;;;;112567;211;42548;-39
2023/10/21 14:43:28;;;;;;;;;;;;;;;;;;112696;211;41659;-40
2023/10/21 14:46:04;;;;;;;;;;;;;;;;;;112621;211;38697;-40
2023/10/21 14:48:40;;;;;;;;;;;;;;;;;;112551;211;39277;-39
2023/10/21 14:51:16;;;;;;;;;;;;;;;;;;112588;211;42711;-40
2023/10/21 14:53:49;;;;;;;;;;;;;;;;;;112519;211;41782;-38
2023/10/21 14:56:24;;;;;;;;;;;;;;;;;;112567;211;38662;-40
2023/10/21 14:59:05;;;;;;;;;;;;;;;;;;112542;211;39260;-40
2023/10/21 15:01:41;;;;;;;;;;;;;;;;;;112554;211;44185;-40
2023/10/21 15:04:16;;;;;;;;;;;;;;;;;;112632;211;41366;-40
2023/10/21 15:06:51;;;;;;;;;;;;;;;;;;112623;211;38841;-40
2023/10/21 15:09:28;;;;;;;;;;;;;;;;;;112629;211;40791;-40
2023/10/21 15:12:04;;;;;;;;;;;;;;;;;;112645;211;42492;-39
2023/10/21 15:14:36;;;;;;;;;;;;;;;;;;112607;211;42996;-40
2023/10/21 15:17:25;;;;;;;;;;;;;;;;;;112610;211;38457;-41
2023/10/21 15:20:00;;;;;;;;;;;;;;;;;;112385;211;175638;-41
2023/10/21 15:22:39;;;;;;;;;;;;;;;;;;112476;211;49231;-42
2023/10/21 15:25:18;;;;;;;;;;;;;;;;;;112498;211;175629;-41
2023/10/21 15:27:53;;;;;;;;;;;;;;;;;;112631;211;39886;-39
2023/10/21 15:30:28;;;;;;;;;;;;;;;;;;112610;211;39562;-40
2023/10/21 15:33:03;;;;;;;;;;;;;;;;;;112674;209;48932;-40
2023/10/21 15:35:38;;;;;;;;;;;;;;;;;;112878;209;41720;-39
2023/10/21 15:38:13;;;;;;;;;;;;;;;;;;112884;209;38562;-39
2023/10/21 15:40:45;;;;;;;;;;;;;;;;;;112840;209;39441;-39
2023/10/21 15:43:17;;;;;;;;;;;;;;;;;;112863;209;48877;-39
2023/10/21 15:45:59;;;;;;;;;;;;;;;;;;112857;209;42737;-40
2023/10/21 15:48:36;;;;;;;;;;;;;;;;;;112649;209;38958;-39
2023/10/21 15:51:21;;;;;;;;;;;;;;;;;;112798;209;39326;-40
2023/10/21 15:53:55;;;;;;;;;;;;;;;;;;112749;209;175237;-40
2023/10/21 15:56:32;;;;;;;;;;;;;;;;;;112878;209;41603;-40
2023/10/21 15:59:07;;;;;;;;;;;;;;;;;;112892;209;38650;-40
2023/10/21 16:01:39;;;;;;;;;;;;;;;;;;112788;209;39402;-39
2023/10/21 16:04:13;;;;;;;;;;;;;;;;;;112854;209;42575;-41
2023/10/21 16:06:46;;;;;;;;;;;;;;;;;;112833;209;41628;-40
2023/10/21 16:09:20;;;;;;;;;;;;;;;;;;112739;209;175637;-40
2023/10/21 16:11:55;;;;;;;;;;;;;;;;;;112767;209;39488;-39
2023/10/21 16:14:27;;;;;;;;;;;;;;;;;;112827;209;42509;-40
2023/10/21 16:17:03;;;;;;;;;;;;;;;;;;112872;209;41410;-39
2023/10/21 16:19:37;;;;;;;;;;;;;;;;;;112595;209;38680;-39
2023/10/21 16:22:13;;;;;;;;;;;;;;;;;;112834;209;40817;-40
2023/10/21 16:24:48;;;;;;;;;;;;;;;;;;112902;209;42956;-39
2023/10/21 16:27:25;;;;;;;;;;;;;;;;;;112859;209;41837;-39
2023/10/21 16:30:03;;;;;;;;;;;;;;;;;;112777;209;38831;-39
2023/10/21 16:32:39;;;;;;;;;;;;;;;;;;112582;209;192912;-39
2023/10/21 16:35:13;;;;;;;;;;;;;;;;;;112800;209;42483;-40
2023/10/21 16:37:49;;;;;;;;;;;;;;;;;;112818;209;41360;-40
2023/10/21 16:40:22;;;;;;;;;;;;;;;;;;112826;209;38434;-40
2023/10/21 16:43:00;;;;;;;;;;;;;;;;;;112523;209;39246;-40
2023/10/21 16:45:35;;;;;;;;;;;;;;;;;;112829;209;42890;-40
2023/10/21 16:48:10;;;;;;;;;;;;;;;;;;112817;209;41600;-40
2023/10/21 16:50:47;;;;;;;;;;;;;;;;;;112825;209;38694;-40
2023/10/21 16:53:22;;;;;;;;;;;;;;;;;;112839;209;40046;-40
2023/10/21 16:55:54;;;;;;;;;;;;;;;;;;112842;209;42697;-40
2023/10/21 16:58:31;;;;;;;;;;;;;;;;;;112811;209;41672;-40
2023/10/21 17:01:09;;;;;;;;;;;;;;;;;;112819;209;39855;-41
2023/10/21 17:03:42;;;;;;;;;;;;;;;;;;112766;209;39398;-40
2023/10/21 17:06:20;;;;;;;;;;;;;;;;;;112806;209;42546;-42
2023/10/21 17:08:54;;;;;;;;;;;;;;;;;;112894;209;41736;-41
2023/10/21 17:11:30;;;;;;;;;;;;;;;;;;112821;209;38452;-40
2023/10/21 17:14:04;;;;;;;;;;;;;;;;;;112813;209;39248;-41
2023/10/21 17:16:37;;;;;;;;;;;;;;;;;;112832;209;42657;-40
2023/10/21 17:19:15;;;;;;;;;;;;;;;;;;112842;209;41406;-43
2023/10/21 17:21:47;;;;;;;;;;;;;;;;;;112790;209;38634;-41
2023/10/21 17:24:20;;;;;;;;;;;;;;;;;;112745;209;39301;-41
2023/10/21 17:26:55;;;;;;;;;;;;;;;;;;112831;209;43113;-41
2023/10/21 17:29:27;;;;;;;;;;;;;;;;;;112799;209;41421;-39
2023/10/21 17:32:02;;;;;;;;;;;;;;;;;;112822;209;38671;-42
2023/10/21 17:34:37;;;;;;;;;;;;;;;;;;112727;209;39710;-40
2023/10/21 17:37:11;;;;;;;;;;;;;;;;;;112787;209;44238;-41
2023/10/21 17:39:47;;;;;;;;;;;;;;;;;;112806;209;41404;-40
2023/10/21 17:42:21;;;;;;;;;;;;;;;;;;112814;209;38612;-39
2023/10/21 17:44:54;;;;;;;;;;;;;;;;;;112445;209;175654;-40
2023/10/21 17:47:30;;;;;;;;;;;;;;;;;;112796;209;43129;-39
2023/10/21 17:50:04;;;;;;;;;;;;;;;;;;112813;209;41687;-39
2023/10/21 17:52:41;;;;;;;;;;;;;;;;;;112781;209;38660;-39
2023/10/21 17:55:15;;;;;;;;;;;;;;;;;;112481;209;41695;-39
2023/10/21 17:57:49;;;;;;;;;;;;;;;;;;112810;209;42953;-39
2023/10/21 18:00:24;;;;;;;;;;;;;;;;;;112791;209;41370;-40
2023/10/21 18:02:59;;;;;;;;;;;;;;;;;;112798;209;37382;-40
2023/10/21 18:05:31;;;;;;;;;;;;;;;;;;112751;209;39761;-40
2023/10/21 18:08:08;;;;;;;;;;;;;;;;;;112812;209;42466;-41
2023/10/21 18:10:42;;;;;;;;;;;;;;;;;;112815;209;40825;-41
2023/10/21 18:13:15;;;;;;;;;;;;;;;;;;112828;209;38847;-40